sensor_id;sensor_type;location;lat;lon;timestamp;P1;durP1;ratioP1;P2;durP2;ratioP2
7903;SDS011;3997;48.416;8.512;2023-06-24T00:00:34;7.22;;;6.53;;
7903;SDS011;3997;48.416;8.512;2023-06-24T00:03:03;7.00;;;6.30;;
7903;SDS011;3997;48.416;8.512;2023-06-24T00:05:32;7.70;;;7.00;;
7903;SDS011;3997;48.416;8.512;2023-06-24T00:07:59;7.32;;;6.78;;
7903;SDS011;3997;48.416;8.512;2023-06-24T00:10:27;7.93;;;7.22;;
7903;SDS011;3997;48.416;8.512;2023-06-24T00:12:53;8.13;;;7.47;;
7903;SDS011;3997;48.416;8.512;2023-06-24T00:15:20;7.75;;;7.13;;
7903;SDS011;3997;48.416;8.512;2023-06-24T00:17:46;7.30;;;6.80;;
7903;SDS011;3997;48.416;8.512;2023-06-24T00:20:15;7.10;;;6.40;;
7903;SDS011;3997;48.416;8.512;2023-06-24T00:22:43;6.88;;;6.28;;
7903;SDS011;3997;48.416;8.512;2023-06-24T00:25:13;6.45;;;5.85;;
7903;SDS011;3997;48.416;8.512;2023-06-24T00:27:40;7.22;;;6.60;;
7903;SDS011;3997;48.416;8.512;2023-06-24T00:30:07;6.53;;;6.00;;
7903;SDS011;3997;48.416;8.512;2023-06-24T00:32:34;6.45;;;6.05;;
7903;SDS011;3997;48.416;8.512;2023-06-24T00:35:00;7.07;;;6.57;;
7903;SDS011;3997;48.416;8.512;2023-06-24T00:37:28;6.78;;;6.28;;
7903;SDS011;3997;48.416;8.512;2023-06-24T00:39:54;6.78;;;6.28;;
7903;SDS011;3997;48.416;8.512;2023-06-24T00:42:21;6.53;;;6.03;;
7903;SDS011;3997;48.416;8.512;2023-06-24T00:44:47;6.85;;;6.35;;
7903;SDS011;3997;48.416;8.512;2023-06-24T00:47:14;6.32;;;5.93;;
7903;SDS011;3997;48.416;8.512;2023-06-24T00:49:41;6.25;;;5.65;;
7903;SDS011;3997;48.416;8.512;2023-06-24T00:52:10;6.57;;;5.97;;
7903;SDS011;3997;48.416;8.512;2023-06-24T00:54:41;6.95;;;6.28;;
7903;SDS011;3997;48.416;8.512;2023-06-24T00:57:08;6.32;;;5.82;;
7903;SDS011;3997;48.416;8.512;2023-06-24T00:59:35;6.63;;;6.03;;
7903;SDS011;3997;48.416;8.512;2023-06-24T01:02:02;6.75;;;6.25;;
7903;SDS011;3997;48.416;8.512;2023-06-24T01:04:29;6.40;;;5.90;;
7903;SDS011;3997;48.416;8.512;2023-06-24T01:06:58;6.18;;;5.78;;
7903;SDS011;3997;48.416;8.512;2023-06-24T01:09:25;6.82;;;6.22;;
7903;SDS011;3997;48.416;8.512;2023-06-24T01:11:52;6.97;;;6.28;;
7903;SDS011;3997;48.416;8.512;2023-06-24T01:14:19;6.80;;;6.30;;
7903;SDS011;3997;48.416;8.512;2023-06-24T01:16:51;6.93;;;6.43;;
7903;SDS011;3997;48.416;8.512;2023-06-24T01:19:32;7.18;;;6.47;;
7903;SDS011;3997;48.416;8.512;2023-06-24T01:22:06;6.70;;;6.20;;
7903;SDS011;3997;48.416;8.512;2023-06-24T01:24:47;6.70;;;6.20;;
7903;SDS011;3997;48.416;8.512;2023-06-24T01:27:27;7.88;;;7.18;;
7903;SDS011;3997;48.416;8.512;2023-06-24T01:32:42;6.80;;;6.25;;
7903;SDS011;3997;48.416;8.512;2023-06-24T01:35:11;6.88;;;6.38;;
7903;SDS011;3997;48.416;8.512;2023-06-24T01:37:40;7.30;;;6.70;;
7903;SDS011;3997;48.416;8.512;2023-06-24T01:40:09;6.75;;;6.25;;
7903;SDS011;3997;48.416;8.512;2023-06-24T01:42:37;6.95;;;6.43;;
7903;SDS011;3997;48.416;8.512;2023-06-24T01:45:05;7.00;;;6.32;;
7903;SDS011;3997;48.416;8.512;2023-06-24T01:47:32;6.97;;;6.47;;
7903;SDS011;3997;48.416;8.512;2023-06-24T01:50:01;7.65;;;7.05;;
7903;SDS011;3997;48.416;8.512;2023-06-24T01:52:28;7.22;;;6.55;;
7903;SDS011;3997;48.416;8.512;2023-06-24T01:54:56;6.45;;;5.95;;
7903;SDS011;3997;48.416;8.512;2023-06-24T01:57:22;6.80;;;6.28;;
7903;SDS011;3997;48.416;8.512;2023-06-24T01:59:49;7.10;;;6.50;;
7903;SDS011;3997;48.416;8.512;2023-06-24T02:02:17;6.75;;;6.25;;
7903;SDS011;3997;48.416;8.512;2023-06-24T02:04:45;7.40;;;6.80;;
7903;SDS011;3997;48.416;8.512;2023-06-24T02:07:13;7.18;;;6.65;;
7903;SDS011;3997;48.416;8.512;2023-06-24T02:09:40;6.93;;;6.35;;
7903;SDS011;3997;48.416;8.512;2023-06-24T02:12:08;6.35;;;5.85;;
7903;SDS011;3997;48.416;8.512;2023-06-24T02:14:35;6.82;;;6.32;;
7903;SDS011;3997;48.416;8.512;2023-06-24T02:17:03;7.30;;;6.70;;
7903;SDS011;3997;48.416;8.512;2023-06-24T02:19:30;6.53;;;6.00;;
7903;SDS011;3997;48.416;8.512;2023-06-24T02:21:58;6.43;;;5.93;;
7903;SDS011;3997;48.416;8.512;2023-06-24T02:24:26;6.88;;;6.35;;
7903;SDS011;3997;48.416;8.512;2023-06-24T02:26:53;6.28;;;5.78;;
7903;SDS011;3997;48.416;8.512;2023-06-24T02:29:21;7.65;;;7.05;;
7903;SDS011;3997;48.416;8.512;2023-06-24T02:31:47;6.80;;;6.20;;
7903;SDS011;3997;48.416;8.512;2023-06-24T02:34:14;7.10;;;6.57;;
7903;SDS011;3997;48.416;8.512;2023-06-24T02:36:40;6.60;;;6.10;;
7903;SDS011;3997;48.416;8.512;2023-06-24T02:39:07;7.43;;;6.82;;
7903;SDS011;3997;48.416;8.512;2023-06-24T02:41:35;8.85;;;6.85;;
7903;SDS011;3997;48.416;8.512;2023-06-24T02:44:01;8.00;;;7.30;;
7903;SDS011;3997;48.416;8.512;2023-06-24T02:46:28;7.45;;;6.57;;
7903;SDS011;3997;48.416;8.512;2023-06-24T02:48:55;7.35;;;6.75;;
7903;SDS011;3997;48.416;8.512;2023-06-24T02:51:22;6.50;;;5.93;;
7903;SDS011;3997;48.416;8.512;2023-06-24T02:53:49;7.18;;;6.47;;
7903;SDS011;3997;48.416;8.512;2023-06-24T02:56:16;6.20;;;5.70;;
7903;SDS011;3997;48.416;8.512;2023-06-24T02:58:47;7.07;;;6.47;;
7903;SDS011;3997;48.416;8.512;2023-06-24T03:01:14;6.90;;;6.30;;
7903;SDS011;3997;48.416;8.512;2023-06-24T03:03:41;7.18;;;6.57;;
7903;SDS011;3997;48.416;8.512;2023-06-24T03:06:08;6.70;;;6.20;;
7903;SDS011;3997;48.416;8.512;2023-06-24T03:08:37;6.78;;;6.28;;
7903;SDS011;3997;48.416;8.512;2023-06-24T03:11:04;7.65;;;6.65;;
7903;SDS011;3997;48.416;8.512;2023-06-24T03:13:30;6.70;;;6.15;;
7903;SDS011;3997;48.416;8.512;2023-06-24T03:15:58;6.43;;;5.80;;
7903;SDS011;3997;48.416;8.512;2023-06-24T03:18:25;7.20;;;5.82;;
7903;SDS011;3997;48.416;8.512;2023-06-24T03:20:51;6.25;;;5.82;;
7903;SDS011;3997;48.416;8.512;2023-06-24T03:23:18;5.55;;;5.15;;
7903;SDS011;3997;48.416;8.512;2023-06-24T03:25:44;6.07;;;5.47;;
7903;SDS011;3997;48.416;8.512;2023-06-24T03:28:11;5.55;;;5.10;;
7903;SDS011;3997;48.416;8.512;2023-06-24T03:30:37;6.28;;;5.78;;
7903;SDS011;3997;48.416;8.512;2023-06-24T03:33:05;5.80;;;5.30;;
7903;SDS011;3997;48.416;8.512;2023-06-24T03:35:32;6.07;;;5.50;;
7903;SDS011;3997;48.416;8.512;2023-06-24T03:37:58;6.05;;;5.65;;
7903;SDS011;3997;48.416;8.512;2023-06-24T03:40:25;6.07;;;5.65;;
7903;SDS011;3997;48.416;8.512;2023-06-24T03:42:51;6.05;;;5.65;;
7903;SDS011;3997;48.416;8.512;2023-06-24T03:45:17;6.30;;;5.70;;
7903;SDS011;3997;48.416;8.512;2023-06-24T03:47:44;5.90;;;5.50;;
7903;SDS011;3997;48.416;8.512;2023-06-24T03:50:12;6.45;;;5.85;;
7903;SDS011;3997;48.416;8.512;2023-06-24T03:52:38;6.18;;;5.60;;
7903;SDS011;3997;48.416;8.512;2023-06-24T03:55:05;6.68;;;6.18;;
7903;SDS011;3997;48.416;8.512;2023-06-24T03:57:31;6.22;;;5.63;;
7903;SDS011;3997;48.416;8.512;2023-06-24T03:59:58;6.25;;;5.78;;
7903;SDS011;3997;48.416;8.512;2023-06-24T04:02:24;7.88;;;5.72;;
7903;SDS011;3997;48.416;8.512;2023-06-24T04:04:52;6.82;;;6.25;;
7903;SDS011;3997;48.416;8.512;2023-06-24T04:07:22;6.50;;;5.90;;
7903;SDS011;3997;48.416;8.512;2023-06-24T04:09:54;7.63;;;6.43;;
7903;SDS011;3997;48.416;8.512;2023-06-24T04:12:20;6.75;;;6.25;;
7903;SDS011;3997;48.416;8.512;2023-06-24T04:14:47;6.78;;;6.30;;
7903;SDS011;3997;48.416;8.512;2023-06-24T04:17:13;6.72;;;6.07;;
7903;SDS011;3997;48.416;8.512;2023-06-24T04:19:40;7.10;;;6.10;;
7903;SDS011;3997;48.416;8.512;2023-06-24T04:22:07;6.72;;;6.18;;
7903;SDS011;3997;48.416;8.512;2023-06-24T04:24:34;6.63;;;6.07;;
7903;SDS011;3997;48.416;8.512;2023-06-24T04:27:01;6.50;;;5.90;;
7903;SDS011;3997;48.416;8.512;2023-06-24T04:29:27;6.05;;;5.57;;
7903;SDS011;3997;48.416;8.512;2023-06-24T04:31:54;6.70;;;6.20;;
7903;SDS011;3997;48.416;8.512;2023-06-24T04:34:20;6.88;;;6.32;;
7903;SDS011;3997;48.416;8.512;2023-06-24T04:36:47;6.82;;;6.30;;
7903;SDS011;3997;48.416;8.512;2023-06-24T04:39:13;6.70;;;6.10;;
7903;SDS011;3997;48.416;8.512;2023-06-24T04:41:41;6.85;;;6.25;;
7903;SDS011;3997;48.416;8.512;2023-06-24T04:44:07;6.95;;;6.35;;
7903;SDS011;3997;48.416;8.512;2023-06-24T04:46:34;6.45;;;5.93;;
7903;SDS011;3997;48.416;8.512;2023-06-24T04:49:00;6.45;;;5.95;;
7903;SDS011;3997;48.416;8.512;2023-06-24T04:51:26;6.40;;;5.93;;
7903;SDS011;3997;48.416;8.512;2023-06-24T04:53:53;6.65;;;6.15;;
7903;SDS011;3997;48.416;8.512;2023-06-24T04:56:20;6.80;;;6.20;;
7903;SDS011;3997;48.416;8.512;2023-06-24T04:58:48;7.63;;;6.93;;
7903;SDS011;3997;48.416;8.512;2023-06-24T05:01:14;8.45;;;7.57;;
7903;SDS011;3997;48.416;8.512;2023-06-24T05:03:41;9.60;;;8.70;;
7903;SDS011;3997;48.416;8.512;2023-06-24T05:06:07;9.55;;;8.65;;
7903;SDS011;3997;48.416;8.512;2023-06-24T05:08:34;9.93;;;9.02;;
7903;SDS011;3997;48.416;8.512;2023-06-24T05:11:00;9.48;;;8.55;;
7903;SDS011;3997;48.416;8.512;2023-06-24T05:13:26;10.52;;;9.43;;
7903;SDS011;3997;48.416;8.512;2023-06-24T05:15:54;10.73;;;8.75;;
7903;SDS011;3997;48.416;8.512;2023-06-24T05:18:21;9.45;;;8.57;;
7903;SDS011;3997;48.416;8.512;2023-06-24T05:20:47;9.10;;;8.27;;
7903;SDS011;3997;48.416;8.512;2023-06-24T05:23:15;8.73;;;7.90;;
7903;SDS011;3997;48.416;8.512;2023-06-24T05:25:41;8.75;;;8.05;;
7903;SDS011;3997;48.416;8.512;2023-06-24T05:28:08;8.10;;;7.30;;
7903;SDS011;3997;48.416;8.512;2023-06-24T05:30:34;9.35;;;7.88;;
7903;SDS011;3997;48.416;8.512;2023-06-24T05:33:02;8.93;;;8.00;;
7903;SDS011;3997;48.416;8.512;2023-06-24T05:35:28;8.25;;;7.55;;
7903;SDS011;3997;48.416;8.512;2023-06-24T05:37:55;7.78;;;7.07;;
7903;SDS011;3997;48.416;8.512;2023-06-24T05:40:21;8.05;;;7.35;;
7903;SDS011;3997;48.416;8.512;2023-06-24T05:42:48;8.18;;;7.38;;
7903;SDS011;3997;48.416;8.512;2023-06-24T05:45:14;8.73;;;7.32;;
7903;SDS011;3997;48.416;8.512;2023-06-24T05:47:41;8.10;;;7.30;;
7903;SDS011;3997;48.416;8.512;2023-06-24T05:50:09;7.72;;;6.95;;
7903;SDS011;3997;48.416;8.512;2023-06-24T05:52:35;8.40;;;7.75;;
7903;SDS011;3997;48.416;8.512;2023-06-24T05:55:02;7.60;;;7.00;;
7903;SDS011;3997;48.416;8.512;2023-06-24T05:57:28;7.80;;;7.10;;
7903;SDS011;3997;48.416;8.512;2023-06-24T05:59:55;7.13;;;6.43;;
7903;SDS011;3997;48.416;8.512;2023-06-24T06:02:21;7.40;;;6.63;;
7903;SDS011;3997;48.416;8.512;2023-06-24T06:04:47;7.15;;;6.55;;
7903;SDS011;3997;48.416;8.512;2023-06-24T06:07:15;7.72;;;6.78;;
7903;SDS011;3997;48.416;8.512;2023-06-24T06:09:42;7.15;;;6.47;;
7903;SDS011;3997;48.416;8.512;2023-06-24T06:12:08;7.70;;;7.07;;
7903;SDS011;3997;48.416;8.512;2023-06-24T06:14:35;7.07;;;6.38;;
7903;SDS011;3997;48.416;8.512;2023-06-24T06:17:01;6.80;;;6.20;;
7903;SDS011;3997;48.416;8.512;2023-06-24T06:19:28;6.70;;;6.10;;
7903;SDS011;3997;48.416;8.512;2023-06-24T06:21:54;6.68;;;6.00;;
7903;SDS011;3997;48.416;8.512;2023-06-24T06:24:22;6.18;;;5.68;;
7903;SDS011;3997;48.416;8.512;2023-06-24T06:26:48;6.30;;;5.60;;
7903;SDS011;3997;48.416;8.512;2023-06-24T06:29:15;5.50;;;5.00;;
7903;SDS011;3997;48.416;8.512;2023-06-24T06:31:41;5.45;;;4.95;;
7903;SDS011;3997;48.416;8.512;2023-06-24T06:34:08;5.97;;;5.32;;
7903;SDS011;3997;48.416;8.512;2023-06-24T06:36:34;5.28;;;4.75;;
7903;SDS011;3997;48.416;8.512;2023-06-24T06:39:01;6.03;;;5.50;;
7903;SDS011;3997;48.416;8.512;2023-06-24T06:41:29;5.25;;;4.85;;
7903;SDS011;3997;48.416;8.512;2023-06-24T06:43:55;5.32;;;4.93;;
7903;SDS011;3997;48.416;8.512;2023-06-24T06:46:22;5.88;;;5.13;;
7903;SDS011;3997;48.416;8.512;2023-06-24T06:48:48;6.68;;;5.20;;
7903;SDS011;3997;48.416;8.512;2023-06-24T06:51:15;6.18;;;5.68;;
7903;SDS011;3997;48.416;8.512;2023-06-24T06:53:43;5.32;;;4.93;;
7903;SDS011;3997;48.416;8.512;2023-06-24T06:56:16;5.40;;;4.93;;
7903;SDS011;3997;48.416;8.512;2023-06-24T06:58:43;5.05;;;4.60;;
7903;SDS011;3997;48.416;8.512;2023-06-24T07:01:10;4.93;;;4.60;;
7903;SDS011;3997;48.416;8.512;2023-06-24T07:03:36;5.05;;;4.57;;
7903;SDS011;3997;48.416;8.512;2023-06-24T07:06:03;5.47;;;5.07;;
7903;SDS011;3997;48.416;8.512;2023-06-24T07:08:29;4.70;;;4.40;;
7903;SDS011;3997;48.416;8.512;2023-06-24T07:10:56;5.32;;;5.00;;
7903;SDS011;3997;48.416;8.512;2023-06-24T07:13:22;4.90;;;4.60;;
7903;SDS011;3997;48.416;8.512;2023-06-24T07:15:50;4.93;;;4.60;;
7903;SDS011;3997;48.416;8.512;2023-06-24T07:18:16;4.72;;;4.32;;
7903;SDS011;3997;48.416;8.512;2023-06-24T07:20:43;5.15;;;4.65;;
7903;SDS011;3997;48.416;8.512;2023-06-24T07:23:09;4.95;;;4.60;;
7903;SDS011;3997;48.416;8.512;2023-06-24T07:25:36;5.20;;;4.80;;
7903;SDS011;3997;48.416;8.512;2023-06-24T07:28:03;5.00;;;4.70;;
7903;SDS011;3997;48.416;8.512;2023-06-24T07:30:29;5.18;;;4.82;;
7903;SDS011;3997;48.416;8.512;2023-06-24T07:32:57;5.15;;;4.75;;
7903;SDS011;3997;48.416;8.512;2023-06-24T07:35:23;4.93;;;4.63;;
7903;SDS011;3997;48.416;8.512;2023-06-24T07:37:50;5.13;;;4.75;;
7903;SDS011;3997;48.416;8.512;2023-06-24T07:40:16;5.18;;;4.75;;
7903;SDS011;3997;48.416;8.512;2023-06-24T07:42:43;4.90;;;4.50;;
7903;SDS011;3997;48.416;8.512;2023-06-24T07:45:10;5.75;;;5.10;;
7903;SDS011;3997;48.416;8.512;2023-06-24T07:47:36;5.13;;;4.63;;
7903;SDS011;3997;48.416;8.512;2023-06-24T07:50:04;5.32;;;4.93;;
7903;SDS011;3997;48.416;8.512;2023-06-24T07:52:31;5.80;;;5.30;;
7903;SDS011;3997;48.416;8.512;2023-06-24T07:54:58;5.35;;;4.95;;
7903;SDS011;3997;48.416;8.512;2023-06-24T07:57:26;5.18;;;4.78;;
7903;SDS011;3997;48.416;8.512;2023-06-24T07:59:52;5.53;;;5.13;;
7903;SDS011;3997;48.416;8.512;2023-06-24T08:02:19;6.10;;;5.63;;
7903;SDS011;3997;48.416;8.512;2023-06-24T08:04:46;5.60;;;5.20;;
7903;SDS011;3997;48.416;8.512;2023-06-24T08:07:14;5.93;;;5.45;;
7903;SDS011;3997;48.416;8.512;2023-06-24T08:09:40;5.55;;;5.15;;
7903;SDS011;3997;48.416;8.512;2023-06-24T08:12:07;5.50;;;5.10;;
7903;SDS011;3997;48.416;8.512;2023-06-24T08:14:34;5.60;;;5.20;;
7903;SDS011;3997;48.416;8.512;2023-06-24T08:17:00;5.60;;;5.20;;
7903;SDS011;3997;48.416;8.512;2023-06-24T08:19:27;5.13;;;4.82;;
7903;SDS011;3997;48.416;8.512;2023-06-24T08:21:53;5.15;;;4.75;;
7903;SDS011;3997;48.416;8.512;2023-06-24T08:24:21;5.72;;;5.22;;
7903;SDS011;3997;48.416;8.512;2023-06-24T08:26:47;5.65;;;5.25;;
7903;SDS011;3997;48.416;8.512;2023-06-24T08:29:14;5.60;;;5.20;;
7903;SDS011;3997;48.416;8.512;2023-06-24T08:31:40;5.03;;;4.72;;
7903;SDS011;3997;48.416;8.512;2023-06-24T08:34:07;4.85;;;4.55;;
7903;SDS011;3997;48.416;8.512;2023-06-24T08:36:33;4.63;;;4.32;;
7903;SDS011;3997;48.416;8.512;2023-06-24T08:39:01;5.05;;;4.75;;
7903;SDS011;3997;48.416;8.512;2023-06-24T08:41:29;4.82;;;4.53;;
7903;SDS011;3997;48.416;8.512;2023-06-24T08:43:56;5.25;;;4.85;;
7903;SDS011;3997;48.416;8.512;2023-06-24T08:46:23;4.57;;;4.28;;
7903;SDS011;3997;48.416;8.512;2023-06-24T08:48:52;4.80;;;4.40;;
7903;SDS011;3997;48.416;8.512;2023-06-24T08:51:20;4.65;;;4.35;;
7903;SDS011;3997;48.416;8.512;2023-06-24T08:53:50;4.75;;;4.35;;
7903;SDS011;3997;48.416;8.512;2023-06-24T08:56:17;4.70;;;4.40;;
7903;SDS011;3997;48.416;8.512;2023-06-24T08:58:45;4.68;;;4.47;;
7903;SDS011;3997;48.416;8.512;2023-06-24T09:01:11;5.20;;;4.90;;
7903;SDS011;3997;48.416;8.512;2023-06-24T09:03:38;4.72;;;4.32;;
7903;SDS011;3997;48.416;8.512;2023-06-24T09:06:04;4.72;;;4.43;;
7903;SDS011;3997;48.416;8.512;2023-06-24T09:08:31;4.95;;;4.65;;
7903;SDS011;3997;48.416;8.512;2023-06-24T09:11:00;5.10;;;4.80;;
7903;SDS011;3997;48.416;8.512;2023-06-24T09:13:33;4.20;;;4.00;;
7903;SDS011;3997;48.416;8.512;2023-06-24T09:16:07;4.20;;;4.00;;
7903;SDS011;3997;48.416;8.512;2023-06-24T09:18:37;4.95;;;4.32;;
7903;SDS011;3997;48.416;8.512;2023-06-24T09:21:03;4.63;;;4.32;;
7903;SDS011;3997;48.416;8.512;2023-06-24T09:23:29;4.93;;;4.53;;
7903;SDS011;3997;48.416;8.512;2023-06-24T09:26:01;4.45;;;4.15;;
7903;SDS011;3997;48.416;8.512;2023-06-24T09:28:27;4.30;;;4.10;;
7903;SDS011;3997;48.416;8.512;2023-06-24T09:31:03;4.63;;;4.32;;
7903;SDS011;3997;48.416;8.512;2023-06-24T09:33:31;4.63;;;4.32;;
7903;SDS011;3997;48.416;8.512;2023-06-24T09:35:59;4.60;;;4.30;;
7903;SDS011;3997;48.416;8.512;2023-06-24T09:38:34;4.72;;;4.40;;
7903;SDS011;3997;48.416;8.512;2023-06-24T09:41:04;4.65;;;4.35;;
7903;SDS011;3997;48.416;8.512;2023-06-24T09:43:30;4.43;;;4.13;;
7903;SDS011;3997;48.416;8.512;2023-06-24T09:45:57;4.60;;;4.20;;
7903;SDS011;3997;48.416;8.512;2023-06-24T09:48:23;4.10;;;3.90;;
7903;SDS011;3997;48.416;8.512;2023-06-24T09:50:51;6.88;;;4.15;;
7903;SDS011;3997;48.416;8.512;2023-06-24T09:53:18;4.18;;;3.97;;
7903;SDS011;3997;48.416;8.512;2023-06-24T09:55:44;4.93;;;4.63;;
7903;SDS011;3997;48.416;8.512;2023-06-24T09:58:12;4.30;;;4.00;;
7903;SDS011;3997;48.416;8.512;2023-06-24T10:00:39;4.10;;;3.83;;
7903;SDS011;3997;48.416;8.512;2023-06-24T10:03:06;4.18;;;3.97;;
7903;SDS011;3997;48.416;8.512;2023-06-24T10:05:33;4.53;;;4.22;;
7903;SDS011;3997;48.416;8.512;2023-06-24T10:08:00;4.15;;;3.95;;
7903;SDS011;3997;48.416;8.512;2023-06-24T10:10:28;4.25;;;4.05;;
7903;SDS011;3997;48.416;8.512;2023-06-24T10:12:55;4.50;;;4.20;;
7903;SDS011;3997;48.416;8.512;2023-06-24T10:15:21;3.95;;;3.65;;
7903;SDS011;3997;48.416;8.512;2023-06-24T10:17:48;4.22;;;3.92;;
7903;SDS011;3997;48.416;8.512;2023-06-24T10:20:23;3.63;;;3.42;;
7903;SDS011;3997;48.416;8.512;2023-06-24T10:22:50;4.22;;;4.03;;
7903;SDS011;3997;48.416;8.512;2023-06-24T10:25:18;3.75;;;3.55;;
7903;SDS011;3997;48.416;8.512;2023-06-24T10:27:46;3.72;;;3.53;;
7903;SDS011;3997;48.416;8.512;2023-06-24T10:30:17;4.07;;;3.88;;
7903;SDS011;3997;48.416;8.512;2023-06-24T10:32:44;4.05;;;3.75;;
7903;SDS011;3997;48.416;8.512;2023-06-24T10:35:21;3.60;;;3.40;;
7903;SDS011;3997;48.416;8.512;2023-06-24T10:37:53;3.28;;;3.17;;
7903;SDS011;3997;48.416;8.512;2023-06-24T10:40:29;3.70;;;3.50;;
7903;SDS011;3997;48.416;8.512;2023-06-24T10:43:00;3.33;;;3.13;;
7903;SDS011;3997;48.416;8.512;2023-06-24T10:45:27;3.78;;;3.58;;
7903;SDS011;3997;48.416;8.512;2023-06-24T10:47:53;3.75;;;3.55;;
7903;SDS011;3997;48.416;8.512;2023-06-24T10:50:21;3.92;;;3.63;;
7903;SDS011;3997;48.416;8.512;2023-06-24T10:52:49;3.67;;;3.47;;
7903;SDS011;3997;48.416;8.512;2023-06-24T10:55:18;3.35;;;3.15;;
7903;SDS011;3997;48.416;8.512;2023-06-24T10:57:46;3.60;;;3.40;;
7903;SDS011;3997;48.416;8.512;2023-06-24T11:00:13;3.70;;;3.50;;
7903;SDS011;3997;48.416;8.512;2023-06-24T11:02:40;3.58;;;3.40;;
7903;SDS011;3997;48.416;8.512;2023-06-24T11:05:07;3.50;;;3.30;;
7903;SDS011;3997;48.416;8.512;2023-06-24T11:07:34;3.40;;;3.10;;
7903;SDS011;3997;48.416;8.512;2023-06-24T11:10:01;3.38;;;3.17;;
7903;SDS011;3997;48.416;8.512;2023-06-24T11:12:29;3.60;;;3.40;;
7903;SDS011;3997;48.416;8.512;2023-06-24T11:14:57;3.00;;;2.90;;
7903;SDS011;3997;48.416;8.512;2023-06-24T11:17:24;3.10;;;3.00;;
7903;SDS011;3997;48.416;8.512;2023-06-24T11:19:51;3.53;;;3.33;;
7903;SDS011;3997;48.416;8.512;2023-06-24T11:22:18;3.53;;;3.33;;
7903;SDS011;3997;48.416;8.512;2023-06-24T11:24:44;3.22;;;3.03;;
7903;SDS011;3997;48.416;8.512;2023-06-24T11:27:11;3.22;;;3.03;;
7903;SDS011;3997;48.416;8.512;2023-06-24T11:29:37;3.35;;;3.15;;
7903;SDS011;3997;48.416;8.512;2023-06-24T11:32:07;3.08;;;2.97;;
7903;SDS011;3997;48.416;8.512;2023-06-24T11:34:34;2.85;;;2.75;;
7903;SDS011;3997;48.416;8.512;2023-06-24T11:37:08;3.40;;;3.20;;
7903;SDS011;3997;48.416;8.512;2023-06-24T11:39:35;3.05;;;2.95;;
7903;SDS011;3997;48.416;8.512;2023-06-24T11:42:02;3.25;;;3.05;;
7903;SDS011;3997;48.416;8.512;2023-06-24T11:44:31;2.80;;;2.65;;
7903;SDS011;3997;48.416;8.512;2023-06-24T11:47:04;2.80;;;2.70;;
7903;SDS011;3997;48.416;8.512;2023-06-24T11:49:32;3.00;;;2.90;;
7903;SDS011;3997;48.416;8.512;2023-06-24T11:52:13;2.88;;;2.78;;
7903;SDS011;3997;48.416;8.512;2023-06-24T11:54:40;3.17;;;3.03;;
7903;SDS011;3997;48.416;8.512;2023-06-24T11:57:07;3.13;;;3.03;;
7903;SDS011;3997;48.416;8.512;2023-06-24T11:59:33;3.30;;;3.10;;
7903;SDS011;3997;48.416;8.512;2023-06-24T12:01:59;2.95;;;2.78;;
7903;SDS011;3997;48.416;8.512;2023-06-24T12:04:28;2.92;;;2.83;;
7903;SDS011;3997;48.416;8.512;2023-06-24T12:06:56;2.97;;;2.80;;
7903;SDS011;3997;48.416;8.512;2023-06-24T12:09:23;3.20;;;3.00;;
7903;SDS011;3997;48.416;8.512;2023-06-24T12:11:49;3.10;;;2.83;;
7903;SDS011;3997;48.416;8.512;2023-06-24T12:14:16;2.83;;;2.72;;
7903;SDS011;3997;48.416;8.512;2023-06-24T12:16:42;2.95;;;2.85;;
7903;SDS011;3997;48.416;8.512;2023-06-24T12:19:09;2.90;;;2.80;;
7903;SDS011;3997;48.416;8.512;2023-06-24T12:21:36;2.90;;;2.80;;
7903;SDS011;3997;48.416;8.512;2023-06-24T12:24:05;3.15;;;2.95;;
7903;SDS011;3997;48.416;8.512;2023-06-24T12:26:31;2.95;;;2.80;;
7903;SDS011;3997;48.416;8.512;2023-06-24T12:28:58;3.00;;;2.80;;
7903;SDS011;3997;48.416;8.512;2023-06-24T12:31:25;3.25;;;3.05;;
7903;SDS011;3997;48.416;8.512;2023-06-24T12:33:51;2.80;;;2.70;;
7903;SDS011;3997;48.416;8.512;2023-06-24T12:36:18;2.95;;;2.85;;
7903;SDS011;3997;48.416;8.512;2023-06-24T12:38:44;6.15;;;5.75;;
7903;SDS011;3997;48.416;8.512;2023-06-24T12:41:12;3.33;;;3.03;;
7903;SDS011;3997;48.416;8.512;2023-06-24T12:43:39;3.38;;;2.90;;
7903;SDS011;3997;48.416;8.512;2023-06-24T12:46:05;3.03;;;2.92;;
7903;SDS011;3997;48.416;8.512;2023-06-24T12:48:32;2.95;;;2.80;;
7903;SDS011;3997;48.416;8.512;2023-06-24T12:50:58;3.08;;;2.63;;
7903;SDS011;3997;48.416;8.512;2023-06-24T12:53:25;2.90;;;2.70;;
7903;SDS011;3997;48.416;8.512;2023-06-24T12:55:51;3.13;;;2.92;;
7903;SDS011;3997;48.416;8.512;2023-06-24T12:58:22;2.80;;;2.70;;
7903;SDS011;3997;48.416;8.512;2023-06-24T13:00:49;2.88;;;2.70;;
7903;SDS011;3997;48.416;8.512;2023-06-24T13:03:15;3.00;;;2.90;;
7903;SDS011;3997;48.416;8.512;2023-06-24T13:05:42;3.05;;;2.95;;
7903;SDS011;3997;48.416;8.512;2023-06-24T13:08:08;2.90;;;2.80;;
7903;SDS011;3997;48.416;8.512;2023-06-24T13:10:36;3.00;;;2.80;;
7903;SDS011;3997;48.416;8.512;2023-06-24T13:13:03;2.67;;;2.58;;
7903;SDS011;3997;48.416;8.512;2023-06-24T13:15:31;2.80;;;2.70;;
7903;SDS011;3997;48.416;8.512;2023-06-24T13:17:57;2.90;;;2.70;;
7903;SDS011;3997;48.416;8.512;2023-06-24T13:20:23;2.92;;;2.83;;
7903;SDS011;3997;48.416;8.512;2023-06-24T13:22:50;2.70;;;2.53;;
7903;SDS011;3997;48.416;8.512;2023-06-24T13:25:17;2.97;;;2.88;;
7903;SDS011;3997;48.416;8.512;2023-06-24T13:27:43;3.25;;;3.05;;
7903;SDS011;3997;48.416;8.512;2023-06-24T13:30:10;4.28;;;4.07;;
7903;SDS011;3997;48.416;8.512;2023-06-24T13:32:38;2.92;;;2.83;;
7903;SDS011;3997;48.416;8.512;2023-06-24T13:35:05;3.15;;;3.00;;
7903;SDS011;3997;48.416;8.512;2023-06-24T13:37:32;3.00;;;2.90;;
7903;SDS011;3997;48.416;8.512;2023-06-24T13:39:58;3.25;;;3.10;;
7903;SDS011;3997;48.416;8.512;2023-06-24T13:42:25;3.10;;;2.90;;
7903;SDS011;3997;48.416;8.512;2023-06-24T13:44:51;3.30;;;3.10;;
7903;SDS011;3997;48.416;8.512;2023-06-24T13:47:18;3.20;;;3.00;;
7903;SDS011;3997;48.416;8.512;2023-06-24T13:49:46;3.10;;;2.97;;
7903;SDS011;3997;48.416;8.512;2023-06-24T13:52:12;3.30;;;3.10;;
7903;SDS011;3997;48.416;8.512;2023-06-24T13:54:38;3.08;;;2.95;;
7903;SDS011;3997;48.416;8.512;2023-06-24T13:57:05;3.67;;;3.47;;
7903;SDS011;3997;48.416;8.512;2023-06-24T13:59:31;3.90;;;3.65;;
7903;SDS011;3997;48.416;8.512;2023-06-24T14:01:58;3.40;;;3.30;;
7903;SDS011;3997;48.416;8.512;2023-06-24T14:04:24;3.25;;;3.15;;
7903;SDS011;3997;48.416;8.512;2023-06-24T14:06:52;3.58;;;3.38;;
7903;SDS011;3997;48.416;8.512;2023-06-24T14:09:19;3.60;;;3.40;;
7903;SDS011;3997;48.416;8.512;2023-06-24T14:11:45;3.60;;;3.40;;
7903;SDS011;3997;48.416;8.512;2023-06-24T14:14:12;3.45;;;3.25;;
7903;SDS011;3997;48.416;8.512;2023-06-24T14:16:38;3.50;;;3.30;;
7903;SDS011;3997;48.416;8.512;2023-06-24T14:19:05;3.53;;;3.22;;
7903;SDS011;3997;48.416;8.512;2023-06-24T14:21:31;3.20;;;3.10;;
7903;SDS011;3997;48.416;8.512;2023-06-24T14:23:59;3.30;;;3.17;;
7903;SDS011;3997;48.416;8.512;2023-06-24T14:26:26;3.55;;;3.35;;
7903;SDS011;3997;48.416;8.512;2023-06-24T14:28:52;3.42;;;3.22;;
7903;SDS011;3997;48.416;8.512;2023-06-24T14:31:19;3.63;;;3.42;;
7903;SDS011;3997;48.416;8.512;2023-06-24T14:33:45;3.70;;;3.40;;
7903;SDS011;3997;48.416;8.512;2023-06-24T14:36:12;3.30;;;3.20;;
7903;SDS011;3997;48.416;8.512;2023-06-24T14:38:38;3.28;;;3.15;;
7903;SDS011;3997;48.416;8.512;2023-06-24T14:41:07;3.15;;;3.05;;
7903;SDS011;3997;48.416;8.512;2023-06-24T14:43:34;3.63;;;3.42;;
7903;SDS011;3997;48.416;8.512;2023-06-24T14:46:00;3.63;;;3.42;;
7903;SDS011;3997;48.416;8.512;2023-06-24T14:48:27;3.78;;;3.50;;
7903;SDS011;3997;48.416;8.512;2023-06-24T14:50:53;3.70;;;3.50;;
7903;SDS011;3997;48.416;8.512;2023-06-24T14:53:20;3.50;;;3.30;;
7903;SDS011;3997;48.416;8.512;2023-06-24T14:55:46;3.83;;;3.50;;
7903;SDS011;3997;48.416;8.512;2023-06-24T14:58:14;3.97;;;3.60;;
7903;SDS011;3997;48.416;8.512;2023-06-24T15:00:41;3.92;;;3.60;;
7903;SDS011;3997;48.416;8.512;2023-06-24T15:03:07;3.63;;;3.35;;
7903;SDS011;3997;48.416;8.512;2023-06-24T15:05:33;3.67;;;3.47;;
7903;SDS011;3997;48.416;8.512;2023-06-24T15:08:00;3.53;;;3.28;;
7903;SDS011;3997;48.416;8.512;2023-06-24T15:10:26;3.72;;;3.42;;
7903;SDS011;3997;48.416;8.512;2023-06-24T15:12:53;3.67;;;3.47;;
7903;SDS011;3997;48.416;8.512;2023-06-24T15:15:21;3.50;;;3.30;;
7903;SDS011;3997;48.416;8.512;2023-06-24T15:17:47;3.70;;;3.50;;